Time;durP1;ratioP1;P1;durP2;ratioP2;P2;SDS_P1;SDS_P2;PMS_P1;PMS_P2;Temp;Humidity;BMP_temperature;BMP_pressure;BME280_temperature;BME280_humidity;BME280_pressure;Samples;Min_cycle;Max_cycle;Signal;HPM_P1;HPM_P2
2022/05/03 00:07:24;;;;;;;23.55;10.40;;;;;;;11.28;67.56;100775.06;5005213;28;20413;-43
2022/05/03 00:10:05;;;;;;;25.60;10.25;;;;;;;11.25;67.47;100785.41;4969422;28;20399;-42
2022/05/03 00:12:40;;;;;;;22.17;10.07;;;;;;;11.27;66.63;100796.66;4960314;28;20051;-42
2022/05/03 00:15:07;;;;;;;27.75;10.55;;;;;;;11.25;67.64;100781.97;4956374;28;20051;-42
2022/05/03 00:17:35;;;;;;;23.50;9.68;;;;;;;11.22;66.73;100780.22;4962711;28;20109;-42
2022/05/03 00:20:20;;;;;;;29.20;10.43;;;;;;;11.18;67.17;100779.31;4957566;28;20054;-41
2022/05/03 00:22:47;;;;;;;21.00;9.55;;;;;;;11.14;67.36;100782.75;4955492;28;20063;-40
2022/05/03 00:25:15;;;;;;;23.17;10.20;;;;;;;11.13;67.26;100777.56;4957740;28;20133;-40
2022/05/03 00:27:42;;;;;;;25.15;11.07;;;;;;;11.15;67.58;100778.44;4955057;28;20055;-39
2022/05/03 00:30:09;;;;;;;20.65;10.23;;;;;;;11.12;67.55;100783.59;4958919;28;20050;-41
2022/05/03 00:32:37;;;;;;;21.83;10.05;;;;;;;11.07;67.82;100780.13;4958423;28;20051;-44
2022/05/03 00:35:05;;;;;;;24.35;10.52;;;;;;;11.02;67.60;100773.16;4960924;28;20471;-40
2022/05/03 00:37:31;;;;;;;22.85;10.60;;;;;;;11.01;67.89;100776.59;4957520;28;20561;-42
2022/05/03 00:39:58;;;;;;;21.65;10.65;;;;;;;10.99;67.52;100773.16;4957573;28;20077;-38
2022/05/03 01:32:32;;;;;;;15.40;6.28;;;;;;;10.64;66.63;100773.75;5046412;28;20406;-39
2022/05/03 01:35:01;;;;;;;13.13;6.18;;;;;;;10.63;67.00;100765.09;5025801;28;20100;-40
2022/05/03 02:05:51;;;;;;;15.27;5.65;;;;;;;10.30;67.43;100766.47;5012481;28;20906;-39
2022/05/03 08:31:14;;;;;;;7.40;3.92;;;;;;;13.72;57.22;100832.63;5126938;27;20519;-40
2022/05/03 08:33:41;;;;;;;8.27;3.83;;;;;;;13.69;57.53;100830.03;5090209;28;20043;-48
2022/05/03 08:36:07;;;;;;;10.40;4.45;;;;;;;13.57;57.02;100828.31;5087191;28;20063;-40
2022/05/03 08:44:08;;;;;;;8.48;4.43;;;;;;;13.14;58.15;100842.25;5088876;28;20048;-47
2022/05/03 08:46:36;;;;;;;10.32;4.15;;;;;;;13.14;58.67;100834.44;5089649;27;20051;-50
2022/05/03 08:49:04;;;;;;;7.78;4.50;;;;;;;13.14;57.92;100835.28;5086294;28;20839;-41
2022/05/03 08:51:32;;;;;;;8.57;4.43;;;;;;;13.17;58.21;100837.06;5090545;28;20670;-40
2022/05/03 08:54:01;;;;;;;7.82;4.03;;;;;;;13.17;57.62;100839.66;5083836;28;20052;-40
2022/05/03 08:56:28;;;;;;;8.43;3.90;;;;;;;13.19;57.81;100837.91;5086613;28;20109;-45
2022/05/03 08:59:12;;;;;;;8.02;4.35;;;;;;;13.28;58.54;100844.84;5090239;28;20047;-40
2022/05/03 09:01:39;;;;;;;7.90;4.60;;;;;;;13.35;58.33;100838.75;5091475;27;21237;-44
2022/05/03 09:04:06;;;;;;;6.65;4.45;;;;;;;13.43;58.23;100847.41;5090220;28;20138;-44
2022/05/03 09:09:19;;;;;;;7.65;3.00;;;;;;;13.37;57.05;100847.41;5040399;28;20945;-45
2022/05/03 09:11:49;;;;;;;8.70;3.50;;;;;;;13.32;57.42;100851.78;4998315;28;20686;-40
2022/05/03 09:14:36;;;;;;;6.78;3.08;;;;;;;13.32;57.30;100841.38;5003602;28;20065;-42
2022/05/03 09:17:03;;;;;;;6.57;2.78;;;;;;;13.32;57.73;100844.84;4982775;28;20090;-40
2022/05/03 09:19:30;;;;;;;4.88;2.85;;;;;;;13.29;57.68;100838.75;5002660;28;20050;-39
2022/05/03 09:24:52;;;;;;;6.95;3.30;;;;;;;13.35;57.61;100839.59;4989255;28;20101;-43
2022/05/03 09:27:20;;;;;;;6.47;3.75;;;;;;;13.47;57.87;100843.06;4980360;28;20050;-43
2022/05/03 09:32:42;;;;;;;6.13;3.25;;;;;;;13.74;56.96;100838.69;5034291;28;20405;-41
2022/05/03 09:38:06;;;;;;;8.57;5.75;;;;;;;13.79;56.67;100834.34;5034963;28;20420;-45
2022/05/03 09:40:40;;;;;;;11.70;5.40;;;;;;;13.75;56.59;100837.84;5007212;28;20046;-42
2022/05/03 09:43:07;;;;;;;10.20;5.60;;;;;;;13.73;56.71;100839.56;4999130;28;20647;-42
2022/05/03 09:45:34;;;;;;;8.43;3.67;;;;;;;13.69;57.33;100832.63;4998972;28;20481;-44
2022/05/03 09:48:02;;;;;;;9.75;5.32;;;;;;;13.73;57.12;100831.75;4996066;28;20141;-42
2022/05/03 09:53:10;;;;;;;7.43;4.07;;;;;;;13.73;57.15;100834.34;5042002;28;20385;-41
2022/05/03 09:55:38;;;;;;;9.82;3.80;;;;;;;13.78;56.77;100835.19;4988202;28;20076;-42
2022/05/03 09:58:07;;;;;;;8.15;4.22;;;;;;;13.73;56.33;100834.34;5028221;28;20045;-41
2022/05/03 10:00:36;;;;;;;6.70;3.97;;;;;;;13.71;56.76;100833.50;5005334;28;20042;-46
2022/05/03 10:03:06;;;;;;;12.65;4.07;;;;;;;13.76;56.42;100834.34;4998068;28;20100;-40
2022/05/03 10:05:34;;;;;;;7.78;3.83;;;;;;;13.81;56.96;100832.59;5004581;28;20710;-45
2022/05/03 10:08:03;;;;;;;7.07;3.67;;;;;;;13.81;56.83;100837.78;5035137;28;20076;-43
2022/05/03 10:10:29;;;;;;;9.48;4.30;;;;;;;13.77;56.30;100830.88;5001276;28;20453;-47
2022/05/03 10:12:58;;;;;;;8.82;3.85;;;;;;;13.71;56.50;100836.13;5002666;28;20054;-44
2022/05/03 10:21:19;;;;;;;9.57;4.25;;;;;;;13.66;57.00;100843.06;5008167;28;20101;-42
2022/05/03 10:24:10;;;;;;;12.27;4.10;;;;;;;13.57;57.20;100844.81;5002948;28;20054;-43
2022/05/03 10:29:35;;;;;;;9.13;4.05;;;;;;;13.58;57.11;100832.69;5053980;28;20392;-42
2022/05/03 10:32:15;;;;;;;10.05;3.60;;;;;;;13.55;57.03;100830.06;5046804;28;20192;-41
2022/05/03 10:37:43;;;;;;;7.53;4.10;;;;;;;13.56;57.18;100831.81;5010826;28;20411;-41
2022/05/03 10:40:13;;;;;;;7.32;3.80;;;;;;;13.57;57.42;100829.19;4987005;28;20061;-42
2022/05/03 10:42:41;;;;;;;5.10;3.40;;;;;;;13.55;56.73;100836.16;4976500;28;20081;-42
2022/05/03 10:45:12;;;;;;;10.10;3.92;;;;;;;13.54;57.18;100831.81;4977443;28;20058;-41
2022/05/03 10:47:53;;;;;;;7.18;3.80;;;;;;;13.53;56.82;100837.88;4989017;28;20434;-40
2022/05/03 10:55:37;;;;;;;9.55;6.05;;;;;;;13.62;57.11;100824.84;5017275;27;21161;-44
2022/05/03 10:58:25;;;;;;;11.00;5.70;;;;;;;13.64;57.14;100818.78;4988666;28;20189;-40
2022/05/03 11:17:09;;;;;;;9.00;4.45;;;;;;;14.52;55.69;100809.63;4999242;27;20395;-40
2022/05/03 11:19:52;;;;;;;8.40;3.90;;;;;;;14.65;55.41;100811.31;4976765;28;20675;-43
2022/05/03 11:22:28;;;;;;;10.45;4.70;;;;;;;14.68;55.14;100809.53;4975944;28;20047;-41
2022/05/03 11:25:04;;;;;;;7.70;3.78;;;;;;;14.71;56.11;100814.72;4973578;28;20042;-44
2022/05/03 11:27:31;;;;;;;8.48;4.65;;;;;;;14.70;55.66;100811.28;4981137;28;20051;-43
2022/05/03 11:30:01;;;;;;;8.32;4.63;;;;;;;14.51;55.63;100814.00;4975088;28;20070;-43
2022/05/03 11:32:37;;;;;;;12.15;4.03;;;;;;;14.35;56.11;100808.03;4976897;28;20051;-44
2022/05/03 11:35:14;;;;;;;6.50;3.90;;;;;;;14.44;55.35;100812.31;4982792;28;20046;-44
2022/05/03 11:37:48;;;;;;;9.73;4.30;;;;;;;14.60;55.64;100807.88;4983390;28;20055;-40
2022/05/03 11:40:19;;;;;;;9.57;4.25;;;;;;;14.74;55.55;100805.16;4978744;28;20076;-41
2022/05/03 11:43:03;;;;;;;8.38;3.95;;;;;;;14.78;55.29;100800.81;4980949;28;20049;-45
2022/05/03 11:45:31;;;;;;;6.22;3.75;;;;;;;14.80;55.08;100796.44;4978007;28;20097;-44
2022/05/03 11:47:58;;;;;;;7.63;3.40;;;;;;;14.85;54.62;100802.47;4980288;28;20054;-46
2022/05/03 11:56:07;;;;;;;8.45;3.97;;;;;;;14.98;55.36;100802.38;4976117;28;20043;-43
2022/05/03 11:58:36;;;;;;;6.65;3.70;;;;;;;14.95;55.14;100799.78;4973273;28;20141;-43
2022/05/03 12:01:12;;;;;;;7.97;3.92;;;;;;;14.98;54.24;100803.25;4973130;28;20058;-45
2022/05/03 12:03:48;;;;;;;5.97;3.60;;;;;;;15.07;55.05;100791.88;4975053;28;20053;-48
2022/05/03 12:06:15;;;;;;;5.95;3.95;;;;;;;15.20;54.77;100789.97;4979114;28;20050;-39
2022/05/03 12:08:45;;;;;;;8.23;4.20;;;;;;;15.29;54.51;100799.47;4972711;28;20673;-42
2022/05/03 12:11:21;;;;;;;7.70;3.50;;;;;;;15.30;54.21;100798.56;4977086;28;20100;-44
2022/05/03 12:13:48;;;;;;;7.03;4.45;;;;;;;15.35;54.64;100796.81;4977870;28;20672;-42
2022/05/03 12:16:21;;;;;;;5.45;3.75;;;;;;;15.47;54.46;100789.72;4976562;28;20538;-43
2022/05/03 12:18:49;;;;;;;8.27;3.33;;;;;;;15.57;54.62;100786.09;4976431;28;20050;-43
2022/05/03 12:23:59;;;;;;;8.05;3.75;;;;;;;15.76;53.96;100789.38;5046391;28;20389;-40
2022/05/03 12:26:35;;;;;;;6.78;3.95;;;;;;;15.76;54.07;100796.31;5049660;28;20190;-41
2022/05/03 12:29:03;;;;;;;7.68;5.25;;;;;;;15.74;54.43;100793.72;5043059;28;20467;-41
2022/05/03 12:31:37;;;;;;;7.13;3.92;;;;;;;15.72;54.20;100789.41;5042879;28;20057;-46
2022/05/03 12:34:07;;;;;;;9.82;3.97;;;;;;;15.73;53.60;100783.31;5040558;28;20041;-43
2022/05/03 12:36:44;;;;;;;7.35;4.07;;;;;;;15.75;53.83;100778.94;5044959;28;20049;-40
2022/05/03 12:39:20;;;;;;;6.85;3.85;;;;;;;15.74;53.90;100780.69;5044762;28;20041;-41
2022/05/03 12:42:10;;;;;;;6.93;3.90;;;;;;;15.68;53.56;100784.22;5013490;28;20073;-43
2022/05/03 12:44:57;;;;;;;12.10;3.95;;;;;;;15.60;53.48;100774.78;5041896;28;20046;-41
2022/05/03 12:47:27;;;;;;;6.50;3.78;;;;;;;15.58;54.67;100777.41;5017491;28;20099;-45
2022/05/03 12:50:11;;;;;;;7.82;4.07;;;;;;;15.59;53.92;100768.69;5042738;28;20100;-44
2022/05/03 12:52:38;;;;;;;7.80;3.90;;;;;;;15.67;53.94;100777.28;5046115;28;20649;-41
2022/05/03 12:55:05;;;;;;;7.57;4.88;;;;;;;15.79;54.12;100775.41;5049659;28;20061;-43
2022/05/03 13:00:19;;;;;;;8.02;5.05;;;;;;;16.09;53.70;100768.06;5042147;28;20596;-41
2022/05/03 13:02:45;;;;;;;6.07;3.67;;;;;;;16.07;53.00;100764.59;5041692;28;20057;-41
2022/05/03 13:05:12;;;;;;;8.32;4.60;;;;;;;16.13;53.62;100759.31;5037548;28;20146;-44
2022/05/03 13:07:38;;;;;;;5.53;3.83;;;;;;;16.21;53.46;100764.41;5045468;28;20048;-44
2022/05/03 13:10:06;;;;;;;7.60;4.07;;;;;;;16.29;53.30;100766.91;5044044;28;20539;-41
2022/05/03 13:12:33;;;;;;;6.38;4.32;;;;;;;16.40;52.96;100757.16;5044002;28;20049;-38
2022/05/03 13:15:00;;;;;;;6.55;3.78;;;;;;;16.47;52.95;100757.91;5045070;28;20045;-42
2022/05/03 13:17:26;;;;;;;6.13;3.97;;;;;;;16.63;53.30;100763.78;5047002;28;20098;-40
2022/05/03 13:19:56;;;;;;;8.07;5.43;;;;;;;16.72;52.67;100756.66;5048489;28;20424;-40
2022/05/03 13:22:23;;;;;;;7.60;3.90;;;;;;;16.65;51.98;100761.97;5046999;28;20114;-44
2022/05/03 13:24:49;;;;;;;7.75;4.03;;;;;;;16.59;51.85;100754.25;5051096;28;20099;-42
2022/05/03 13:27:16;;;;;;;5.85;3.58;;;;;;;16.66;52.40;100749.78;5045965;28;20041;-42
2022/05/03 13:29:43;;;;;;;7.15;3.40;;;;;;;16.64;51.15;100752.41;5043309;28;20052;-45
2022/05/03 13:32:09;;;;;;;10.30;5.03;;;;;;;16.70;51.58;100743.59;5043371;28;20057;-39
2022/05/03 13:34:36;;;;;;;7.30;3.90;;;;;;;16.61;51.26;100747.22;5036986;28;20124;-40
2022/05/03 13:42:37;;;;;;;6.82;4.03;;;;;;;16.83;51.97;100744.25;5044633;28;20095;-44
2022/05/03 13:45:04;;;;;;;7.30;3.92;;;;;;;16.96;52.18;100743.13;5037522;28;20061;-41
2022/05/03 13:47:31;;;;;;;7.63;4.25;;;;;;;17.10;51.84;100742.06;5039528;28;20044;-45
2022/05/03 13:49:58;;;;;;;6.10;3.53;;;;;;;17.20;51.17;100735.72;5044167;28;20041;-42
2022/05/03 13:52:25;;;;;;;7.28;4.45;;;;;;;17.12;50.33;100740.25;5034959;28;20052;-43
2022/05/03 13:54:51;;;;;;;6.93;5.63;;;;;;;17.01;50.22;100735.22;5023591;28;21664;-44
2022/05/03 13:57:19;;;;;;;7.93;4.38;;;;;;;16.99;50.61;100743.97;5041465;28;20100;-41
2022/05/03 13:59:49;;;;;;;8.50;4.55;;;;;;;17.01;50.69;100729.09;5035688;28;20686;-42
2022/05/03 14:02:20;;;;;;;7.35;4.25;;;;;;;17.00;50.46;100730.00;5036226;28;20050;-44
2022/05/03 14:04:47;;;;;;;9.52;4.13;;;;;;;17.04;50.87;100729.91;5034464;28;20054;-43
2022/05/03 14:07:16;;;;;;;7.38;4.00;;;;;;;17.21;50.81;100727.00;5031983;28;20505;-41
2022/05/03 14:09:43;;;;;;;6.97;4.30;;;;;;;17.13;50.69;100722.81;5040059;28;20136;-43
2022/05/03 14:12:10;;;;;;;5.82;4.05;;;;;;;17.06;50.87;100717.69;5034855;28;20050;-41
2022/05/03 14:14:38;;;;;;;7.13;4.18;;;;;;;17.07;51.01;100722.06;5028410;28;20126;-40
2022/05/03 14:17:05;;;;;;;7.93;4.60;;;;;;;17.21;50.81;100719.16;5031961;28;20049;-44
2022/05/03 14:19:32;;;;;;;7.20;5.15;;;;;;;17.33;50.94;100714.56;5025976;28;20057;-44
2022/05/03 14:22:01;;;;;;;9.43;4.70;;;;;;;17.37;50.72;100712.75;5024859;28;20045;-41
2022/05/03 14:24:27;;;;;;;11.57;6.03;;;;;;;17.33;51.12;100714.56;5025499;28;20054;-41
2022/05/03 14:26:54;;;;;;;9.52;4.32;;;;;;;17.29;50.88;100711.13;5026915;28;20049;-44
2022/05/03 14:29:21;;;;;;;7.40;4.43;;;;;;;17.34;50.37;100708.44;5027590;28;20855;-45
2022/05/03 14:31:50;;;;;;;6.00;3.83;;;;;;;17.21;50.53;100707.81;5028602;28;20053;-41
2022/05/03 14:34:17;;;;;;;8.32;4.78;;;;;;;17.21;51.07;100703.47;5028675;28;20046;-41
2022/05/03 14:36:46;;;;;;;7.20;4.05;;;;;;;17.27;50.90;100701.59;5031438;28;20049;-42
2022/05/03 14:39:14;;;;;;;7.32;4.65;;;;;;;17.36;50.67;100700.56;5026777;28;20041;-42
2022/05/03 14:42:02;;;;;;;8.65;4.32;;;;;;;17.40;50.76;100707.44;5022750;28;20053;-42
2022/05/03 14:44:29;;;;;;;7.70;4.60;;;;;;;17.41;50.15;100701.31;5027149;28;20052;-42
2022/05/03 14:47:03;;;;;;;6.65;3.90;;;;;;;17.27;50.88;100699.84;5030463;28;20160;-43
2022/05/03 14:49:30;;;;;;;6.97;3.83;;;;;;;17.20;50.01;100703.47;5024065;28;20473;-43
2022/05/03 14:51:58;;;;;;;8.43;4.78;;;;;;;17.18;50.52;100698.28;5030223;28;20050;-42
2022/05/03 14:54:25;;;;;;;7.53;4.15;;;;;;;17.17;50.84;100691.31;5026079;28;20053;-42
2022/05/03 15:05:13;;;;;;;9.07;4.78;;;;;;;16.99;51.42;100681.19;5025440;28;20053;-41
2022/05/03 15:07:40;;;;;;;8.38;5.05;;;;;;;16.96;51.45;100682.94;5037035;28;20053;-44
2022/05/03 15:10:07;;;;;;;9.32;4.95;;;;;;;16.95;51.24;100675.13;5028934;28;20045;-42
2022/05/03 15:12:33;;;;;;;8.68;5.00;;;;;;;16.93;51.23;100680.38;5029035;28;20042;-41
2022/05/03 15:15:00;;;;;;;7.88;4.55;;;;;;;16.78;51.74;100678.94;5032164;28;20057;-42
2022/05/03 15:17:27;;;;;;;8.48;5.15;;;;;;;16.72;52.14;100680.81;5028911;28;20048;-41
2022/05/03 15:19:54;;;;;;;7.10;5.38;;;;;;;16.67;52.03;100681.75;5022351;28;20393;-42
2022/05/03 15:24:35;;;;;;;8.48;5.07;;;;;;;16.66;51.70;100674.81;5027884;28;20095;-43
2022/05/03 15:25:08;;;;;;;12.80;6.43;;;;;;;16.75;51.98;100675.53;5023430;28;20459;-42
2022/05/03 15:27:35;;;;;;;10.20;5.25;;;;;;;16.82;51.86;100674.53;5027148;28;20048;-42
2022/05/03 15:30:03;;;;;;;11.13;5.50;;;;;;;16.87;51.52;100674.41;5026473;28;20740;-43
2022/05/03 15:32:32;;;;;;;13.18;5.03;;;;;;;16.94;51.64;100676.91;5026197;28;20080;-45
2022/05/03 15:35:00;;;;;;;10.10;5.35;;;;;;;16.98;51.37;100680.31;5023640;28;20136;-46
2022/05/03 15:37:28;;;;;;;9.05;4.75;;;;;;;16.99;50.67;100675.94;5022518;28;20096;-42
2022/05/03 15:39:56;;;;;;;9.18;5.03;;;;;;;17.10;51.20;100674.00;5024305;28;20053;-42
2022/05/03 15:42:25;;;;;;;9.80;4.93;;;;;;;17.15;51.08;100677.38;5019688;28;20037;-39
2022/05/03 15:44:54;;;;;;;7.93;4.35;;;;;;;17.09;50.41;100664.41;5024644;28;20045;-42
2022/05/03 15:47:22;;;;;;;9.88;4.60;;;;;;;17.13;50.97;100666.09;5025322;28;20073;-43
2022/05/03 15:49:49;;;;;;;10.63;4.90;;;;;;;17.12;51.01;100666.97;5023817;28;20061;-42
2022/05/03 15:52:18;;;;;;;9.05;5.20;;;;;;;17.17;50.43;100664.28;5022408;28;20140;-42
2022/05/03 15:54:45;;;;;;;9.65;5.07;;;;;;;17.18;50.86;100664.25;5024045;28;20574;-44
2022/05/03 15:57:11;;;;;;;9.82;4.68;;;;;;;17.11;51.06;100662.66;5022190;28;20548;-40
2022/05/03 15:59:39;;;;;;;8.43;5.22;;;;;;;17.14;51.03;100662.59;5023971;28;20049;-40
2022/05/03 16:02:07;;;;;;;6.97;4.65;;;;;;;17.20;51.47;100659.81;5022724;28;20057;-42
2022/05/03 16:04:37;;;;;;;8.98;5.05;;;;;;;17.19;51.56;100662.50;5019126;28;20045;-44
2022/05/03 16:07:05;;;;;;;6.88;4.70;;;;;;;17.21;51.21;100658.97;5022456;28;20123;-40
2022/05/03 16:09:33;;;;;;;9.55;5.30;;;;;;;17.27;51.21;100659.72;5022613;28;20061;-42
2022/05/03 16:12:01;;;;;;;6.60;4.30;;;;;;;17.34;50.97;100658.69;5000775;28;20077;-43
2022/05/03 16:14:27;;;;;;;8.30;5.32;;;;;;;17.31;50.55;100648.28;5020071;28;20065;-44
2022/05/03 16:16:55;;;;;;;9.02;4.07;;;;;;;17.32;50.24;100647.38;5019071;28;20046;-43
2022/05/03 16:19:25;;;;;;;7.63;4.85;;;;;;;17.36;50.37;100643.78;5023331;28;20049;-41
2022/05/03 16:21:52;;;;;;;10.27;6.68;;;;;;;17.40;50.82;100645.47;5024094;28;20489;-42
2022/05/03 16:24:19;;;;;;;7.00;4.68;;;;;;;17.33;51.09;100643.88;5025037;28;20048;-41
2022/05/03 16:26:47;;;;;;;8.00;5.05;;;;;;;17.19;50.77;100637.16;5024965;28;20057;-42
2022/05/03 16:29:14;;;;;;;7.35;5.25;;;;;;;17.15;51.09;100642.50;5026202;28;20449;-48
2022/05/03 16:31:41;;;;;;;10.40;5.22;;;;;;;17.09;51.09;100633.00;5023960;28;20573;-43
2022/05/03 16:34:09;;;;;;;7.18;4.47;;;;;;;17.09;50.91;100635.63;5030073;28;20053;-39
2022/05/03 16:42:11;;;;;;;9.02;4.65;;;;;;;17.03;51.05;100635.75;5031891;28;20049;-45
2022/05/03 16:44:41;;;;;;;10.80;6.07;;;;;;;17.02;51.18;100627.00;5021064;28;20183;-42
2022/05/03 16:47:08;;;;;;;9.98;4.68;;;;;;;17.02;51.09;100627.00;5018470;28;20054;-42
2022/05/03 16:49:39;;;;;;;8.65;4.60;;;;;;;17.05;51.34;100624.38;5014836;28;20280;-40
2022/05/03 16:52:07;;;;;;;9.70;4.60;;;;;;;17.08;50.97;100626.94;5031886;28;20107;-42
2022/05/03 16:54:34;;;;;;;8.38;5.25;;;;;;;17.05;50.57;100613.00;5030886;28;20049;-42
2022/05/03 16:57:02;;;;;;;8.35;5.00;;;;;;;17.08;51.60;100623.44;5034352;28;20112;-40
2022/05/03 16:59:28;;;;;;;8.23;4.63;;;;;;;17.08;50.84;100618.22;5020912;28;20050;-44
2022/05/03 17:01:55;;;;;;;9.00;4.97;;;;;;;17.07;50.76;100620.00;5024747;28;20175;-40
2022/05/03 17:04:23;;;;;;;7.95;4.97;;;;;;;16.99;51.34;100621.84;5034652;28;20033;-44
2022/05/03 17:06:49;;;;;;;11.27;5.57;;;;;;;16.96;51.37;100621.94;5037388;28;20095;-43
2022/05/03 17:09:16;;;;;;;10.52;5.28;;;;;;;16.93;50.86;100620.22;5036525;28;20544;-43
2022/05/03 17:11:44;;;;;;;11.30;6.20;;;;;;;16.96;50.90;100620.16;5040673;28;20104;-40
2022/05/03 17:14:13;;;;;;;8.93;6.28;;;;;;;16.91;51.16;100610.66;5039586;28;20454;-43
2022/05/03 17:16:44;;;;;;;8.98;4.72;;;;;;;16.87;50.94;100619.47;5031236;28;20049;-42
2022/05/03 17:19:11;;;;;;;7.28;4.82;;;;;;;16.83;51.24;100614.31;5033617;28;20053;-40
2022/05/03 17:21:39;;;;;;;10.25;6.53;;;;;;;16.86;51.30;100608.19;5036008;28;20726;-42
2022/05/03 17:24:08;;;;;;;8.90;5.15;;;;;;;16.78;51.27;100610.06;5008977;28;20053;-41
2022/05/03 17:26:36;;;;;;;11.88;6.18;;;;;;;16.68;51.49;100614.59;5034526;28;20465;-40
2022/05/03 17:29:05;;;;;;;13.75;7.05;;;;;;;16.66;51.40;100612.03;5034492;28;20432;-40
2022/05/03 17:31:33;;;;;;;9.05;4.93;;;;;;;16.59;51.81;100610.44;5013319;28;20128;-42
2022/05/03 17:34:02;;;;;;;12.25;6.15;;;;;;;16.55;51.62;100614.00;5017116;28;20077;-41
2022/05/03 17:36:30;;;;;;;13.60;5.45;;;;;;;16.44;51.93;100606.31;5002177;28;20049;-45
2022/05/03 17:38:57;;;;;;;8.77;5.85;;;;;;;16.40;52.71;100608.16;5005202;28;20072;-41
2022/05/03 17:41:24;;;;;;;9.35;4.95;;;;;;;16.37;52.37;100600.34;5005861;28;20096;-42
2022/05/03 17:43:55;;;;;;;10.50;5.43;;;;;;;16.36;53.01;100603.88;5005432;28;20088;-43
2022/05/03 17:46:27;;;;;;;11.30;6.32;;;;;;;16.35;52.28;100603.91;5031521;28;20659;-41
2022/05/03 17:48:54;;;;;;;11.43;6.00;;;;;;;16.29;52.54;100608.34;5035551;28;20053;-43
2022/05/03 17:51:22;;;;;;;10.13;5.97;;;;;;;16.22;52.88;100600.63;5032943;28;20139;-44
2022/05/03 17:53:58;;;;;;;13.52;6.75;;;;;;;16.17;52.48;100608.53;5037549;28;20053;-40
2022/05/03 17:56:29;;;;;;;12.38;6.47;;;;;;;16.14;52.39;100606.84;5035444;28;20111;-45
2022/05/03 17:58:56;;;;;;;11.65;5.93;;;;;;;16.11;52.85;100606.88;5040874;28;20634;-39
2022/05/03 18:01:24;;;;;;;13.18;5.40;;;;;;;16.07;53.25;100597.38;5038491;28;20063;-41
2022/05/03 18:03:52;;;;;;;9.20;5.63;;;;;;;16.02;53.11;100599.22;5035644;28;20128;-41
2022/05/03 18:09:23;;;;;;;11.05;5.20;;;;;;;15.79;53.16;100589.97;5020870;28;20057;-41
2022/05/03 18:11:53;;;;;;;8.57;5.05;;;;;;;15.61;53.44;100597.22;5038024;28;20049;-47
2022/05/03 18:14:21;;;;;;;10.13;5.22;;;;;;;15.39;54.31;100589.69;5025647;28;20052;-40
2022/05/03 18:16:47;;;;;;;10.68;5.80;;;;;;;15.19;54.33;100594.31;5032247;28;20129;-41
2022/05/03 18:19:14;;;;;;;13.05;5.70;;;;;;;14.98;55.04;100594.56;5036846;28;20045;-41
2022/05/03 18:21:41;;;;;;;10.55;5.38;;;;;;;14.87;55.43;100586.88;5032329;28;20107;-42
2022/05/03 18:24:25;;;;;;;9.43;6.05;;;;;;;14.75;55.54;100586.97;5035705;28;20406;-41
2022/05/03 18:26:52;;;;;;;9.63;4.82;;;;;;;14.63;56.34;100588.84;5029519;28;20130;-40
2022/05/03 18:29:19;;;;;;;8.63;5.03;;;;;;;14.56;56.07;100581.97;5023909;28;20053;-40
2022/05/03 18:31:46;;;;;;;11.05;5.78;;;;;;;14.43;56.26;100582.97;5026854;28;20063;-44
2022/05/03 18:34:16;;;;;;;10.93;6.70;;;;;;;14.33;57.04;100587.41;5021502;28;20406;-43
2022/05/03 18:36:43;;;;;;;8.80;5.25;;;;;;;14.28;57.43;100592.66;5022694;28;20053;-42
2022/05/03 18:39:10;;;;;;;8.88;5.50;;;;;;;14.29;57.04;100594.41;5026665;28;20080;-44
2022/05/03 18:41:38;;;;;;;10.25;4.93;;;;;;;14.27;56.86;100590.94;5026702;28;20111;-45
2022/05/03 18:44:07;;;;;;;8.63;4.78;;;;;;;14.25;57.37;100585.75;5024835;28;20096;-41
2022/05/03 18:46:34;;;;;;;8.95;5.13;;;;;;;14.14;57.24;100588.47;5027038;28;20046;-42
2022/05/03 18:49:02;;;;;;;10.13;5.60;;;;;;;14.09;57.16;100587.63;5027796;28;20045;-41
2022/05/03 18:51:28;;;;;;;10.30;7.03;;;;;;;14.10;57.94;100589.38;5027164;28;20398;-46
2022/05/03 18:56:42;;;;;;;11.88;5.97;;;;;;;14.08;57.62;100592.88;5026074;28;20053;-44
2022/05/03 18:59:09;;;;;;;9.90;5.18;;;;;;;14.09;57.68;100586.78;5027095;28;20053;-45
2022/05/03 19:01:36;;;;;;;9.82;5.68;;;;;;;14.08;57.12;100585.91;5023886;28;20049;-41
2022/05/03 19:04:03;;;;;;;10.63;5.85;;;;;;;14.08;57.93;100591.13;5027155;28;20042;-40
2022/05/03 19:06:29;;;;;;;10.82;5.55;;;;;;;14.08;57.18;100582.44;5027850;28;20103;-42
2022/05/03 19:08:56;;;;;;;10.05;5.63;;;;;;;14.10;57.11;100589.38;5026388;28;20045;-41
2022/05/03 19:11:25;;;;;;;10.15;5.70;;;;;;;14.11;56.69;100585.88;5026413;28;20103;-39
2022/05/03 19:13:51;;;;;;;9.60;5.60;;;;;;;14.14;57.30;100590.19;5026460;28;20064;-41
2022/05/03 19:16:22;;;;;;;10.70;6.05;;;;;;;14.14;57.07;100584.97;5028699;28;20041;-41
2022/05/03 19:18:49;;;;;;;9.20;5.70;;;;;;;14.13;57.06;100578.94;5027864;28;20049;-39
2022/05/03 19:21:15;;;;;;;9.93;5.60;;;;;;;14.10;57.41;100584.16;5028140;28;20053;-40
2022/05/03 19:32:03;;;;;;;11.65;5.72;;;;;;;13.79;57.65;100578.31;5026222;28;20061;-41
2022/05/03 19:34:31;;;;;;;9.48;5.63;;;;;;;13.76;58.40;100584.44;5027832;28;20034;-41
2022/05/03 19:36:58;;;;;;;9.35;5.40;;;;;;;13.77;58.33;100578.34;5025190;28;20049;-41
2022/05/03 19:39:25;;;;;;;10.48;6.45;;;;;;;13.80;58.52;100585.25;5026405;28;20452;-40
2022/05/03 19:41:53;;;;;;;10.25;5.75;;;;;;;13.80;58.77;100585.25;5027469;28;20122;-42
2022/05/03 19:44:20;;;;;;;10.68;6.15;;;;;;;13.77;58.73;100586.16;5027362;28;20099;-45
2022/05/03 19:46:47;;;;;;;9.27;5.68;;;;;;;13.72;58.79;100582.72;5027557;28;20057;-41
2022/05/03 19:49:15;;;;;;;13.32;6.03;;;;;;;13.66;58.52;100583.63;5028395;28;20037;-39
2022/05/03 19:51:43;;;;;;;10.80;5.93;;;;;;;13.62;58.23;100587.97;5025925;28;20084;-42
2022/05/03 19:54:10;;;;;;;10.43;5.82;;;;;;;13.60;59.37;100588.88;5025277;28;20053;-41
2022/05/03 19:56:38;;;;;;;12.63;6.65;;;;;;;13.56;59.31;100593.25;5027054;28;20107;-42
2022/05/03 19:59:06;;;;;;;9.57;5.97;;;;;;;13.55;59.06;100591.53;5024708;28;20145;-42
2022/05/03 20:01:33;;;;;;;11.80;5.57;;;;;;;13.55;59.22;100588.03;5027425;28;20041;-40
2022/05/03 20:04:00;;;;;;;11.05;5.78;;;;;;;13.56;58.32;100589.75;5023362;28;20124;-40
2022/05/03 20:06:26;;;;;;;8.35;5.20;;;;;;;13.53;58.29;100582.84;5024593;28;20045;-42
2022/05/03 20:08:53;;;;;;;11.85;5.43;;;;;;;13.51;59.52;100589.78;5020382;28;20057;-38
2022/05/03 20:11:20;;;;;;;9.40;5.68;;;;;;;13.48;59.58;100590.66;5026494;28;20692;-45
2022/05/03 20:13:46;;;;;;;10.63;5.72;;;;;;;13.40;60.17;100581.19;5026562;28;20829;-43
2022/05/03 20:16:13;;;;;;;10.88;5.38;;;;;;;13.30;60.34;100581.22;5027176;28;20099;-41
2022/05/03 20:18:57;;;;;;;9.10;5.45;;;;;;;13.22;60.38;100588.19;5025446;28;20115;-45
2022/05/03 20:21:23;;;;;;;8.63;5.22;;;;;;;13.11;59.84;100586.50;5026240;28;20049;-39
2022/05/03 20:23:50;;;;;;;11.07;6.00;;;;;;;13.06;60.94;100588.25;5026215;28;20464;-43
2022/05/03 20:26:17;;;;;;;9.80;5.45;;;;;;;13.05;61.25;100601.28;5027671;28;20041;-42
2022/05/03 20:28:44;;;;;;;9.27;5.07;;;;;;;13.06;61.25;100598.66;5026670;28;20054;-42
2022/05/03 20:31:10;;;;;;;9.65;6.30;;;;;;;13.08;60.47;100591.72;5024915;28;20460;-44
2022/05/03 20:33:39;;;;;;;9.48;5.53;;;;;;;13.09;61.36;100593.47;5023615;28;20521;-43
2022/05/03 20:36:06;;;;;;;12.65;5.90;;;;;;;13.06;60.61;100588.25;5026390;28;20046;-40
2022/05/03 20:38:33;;;;;;;11.70;5.97;;;;;;;13.03;61.25;100595.22;5022516;28;20100;-40
2022/05/03 20:41:00;;;;;;;11.82;5.10;;;;;;;13.01;61.22;100595.22;5021347;28;20057;-41
2022/05/03 20:43:27;;;;;;;11.02;5.70;;;;;;;13.01;60.90;100594.34;5023071;28;20045;-43
2022/05/03 20:45:53;;;;;;;11.90;5.53;;;;;;;13.00;60.46;100598.69;5027864;28;20068;-41
2022/05/03 20:51:07;;;;;;;12.77;5.75;;;;;;;12.94;61.37;100594.38;5027018;28;20103;-46
2022/05/03 20:53:35;;;;;;;12.98;5.95;;;;;;;12.93;61.52;100602.16;5026877;28;20049;-41
2022/05/03 20:56:02;;;;;;;13.10;8.05;;;;;;;12.90;60.42;100605.66;5029460;28;20440;-41
2022/05/03 20:58:29;;;;;;;11.43;6.32;;;;;;;12.89;60.45;100606.53;5027672;28;20046;-42